Data for 10/19/2010

Time Sea-Level Adjusted Pressure Absolute Pressure Temperature Relative Humidity Dew Point   
(mb) (inHg) (mb) (inHg) (C) (F) (%) (C) (F)
00:05 1022 30.18 851 25.13 4.9 40.9 52 -4.1 24.7
00:10 1022 30.18 851 25.13 4.9 40.8 53 -3.9 25
00:15 1022 30.18 851 25.13 4.6 40.2 55 -3.6 25.5
00:20 1022 30.18 851 25.13 4.4 39.9 54 -4.1 24.6
00:25 1022 30.18 851 25.13 4.6 40.3 50 -5 23
00:30 1022 30.18 851 25.13 5.4 41.6 49 -4.5 23.9
00:35 1022 30.18 851 25.13 5.4 41.8 49 -4.5 23.8
00:40 1022 30.18 851 25.13 5.1 41.2 51 -4.1 24.7
00:45 1022 30.18 851 25.13 4.8 40.7 53 -4 24.8
00:50 1022 30.18 851 25.13 4.6 40.3 53 -4.1 24.6
00:55 1022 30.18 851 25.13 4.6 40.2 53 -4.3 24.3
01:00 1022 30.18 851 25.13 4.5 40 53 -4.2 24.5
01:05 1022 30.18 851 25.13 4.3 39.8 55 -3.9 25
01:10 1022 30.18 851 25.13 4.2 39.6 55 -4 24.9
01:15 1022 30.18 851 25.13 4.5 40.1 50 -4.9 23.2
01:20 1022 30.18 851 25.13 4.9 40.8 49 -4.8 23.3
01:25 1022 30.18 851 25.13 4.7 40.5 50 -4.8 23.4
01:30 1022 30.18 851 25.13 4.7 40.5 50 -4.8 23.4
01:35 1022 30.18 851 25.13 4.8 40.6 50 -4.7 23.6
01:40 1022 30.18 851 25.13 4.8 40.6 47 -5.6 21.9
01:45 1022 30.18 851 25.13 4.9 40.8 45 -5.9 21.3
01:50 1022 30.18 851 25.13 5.1 41.2 45 -5.8 21.6
01:55 1022 30.18 851 25.13 5 40.9 48 -5.1 22.8
02:00 1022 30.18 851 25.13 4.3 39.7 51 -5.1 22.9
02:05 1022 30.18 851 25.13 3.8 38.8 53 -4.8 23.3
02:10 1022 30.18 851 25.13 4 39.3 45 -6.9 19.7
02:15 1022 30.18 851 25.13 4.8 40.6 46 -5.7 21.7
02:20 1022 30.18 851 25.13 4.8 40.6 46 -6 21.2
02:25 1022 30.18 851 25.13 5.3 41.6 40 -7.2 19
02:30 1022 30.18 851 25.13 5.9 42.6 39 -7.2 19.1
02:35 1022 30.18 851 25.13 6 42.8 39 -7 19.4
02:40 1022 30.18 851 25.13 6 42.9 36 -7.8 18
02:45 1022 30.18 851 25.13 6.3 43.3 37 -7.3 18.8
02:50 1022 30.18 851 25.13 5.9 42.7 40 -6.6 20.1
02:55 1022 30.18 851 25.13 5.4 41.7 41 -6.9 19.6
03:00 1022 30.18 851 25.13 5.6 42.1 40 -7.1 19.2
03:05 1022 30.18 851 25.13 5.6 42 40 -6.9 19.5
03:10 1022 30.18 851 25.13 5.3 41.6 44 -6.1 21
03:15 1022 30.18 851 25.13 4.9 40.8 46 -5.8 21.6
03:20 1022 30.18 851 25.13 4.8 40.6 45 -6.1 21
03:25 1022 30.18 851 25.13 4.8 40.7 45 -6 21.2
03:30 1022 30.18 851 25.13 4.7 40.5 46 -5.9 21.4
03:35 1022 30.18 851 25.13 4.4 40 48 -5.6 22
03:40 1022 30.18 851 25.13 4.1 39.3 51 -5.3 22.5
03:45 1022 30.18 851 25.13 4.1 39.4 51 -5.2 22.6
03:50 1022 30.18 851 25.13 4.2 39.6 51 -5 23
03:55 1022 30.18 851 25.13 4.2 39.6 52 -4.8 23.4
04:00 1022 30.18 851 25.13 4.1 39.4 50 -5.4 22.3
04:05 1022 30.18 851 25.13 4.4 39.8 49 -5.3 22.4
04:10 1022 30.18 851 25.13 4.5 40.1 49 -5.2 22.6
04:15 1022 30.18 851 25.13 4.6 40.2 48 -5.4 22.2
04:20 1022 30.18 851 25.13 4.7 40.4 49 -5.1 22.8
04:25 1022 30.18 851 25.13 4.3 39.8 50 -5.3 22.5
04:30 1022 30.18 851 25.13 4.3 39.8 49 -5.4 22.2
04:35 1022 30.18 851 25.13 4.4 39.9 49 -5.3 22.5
04:40 1022 30.18 851 25.13 4.5 40.1 45 -6.3 20.6
04:45 1022 30.18 851 25.13 4.7 40.4 46 -6 21.2
04:50 1022 30.18 851 25.13 4.6 40.3 49 -5.3 22.5
04:55 1022 30.18 851 25.13 4.4 39.9 48 -5.5 22
05:00 1022 30.18 851 25.13 4.4 39.8 49 -5.3 22.4
05:05 1022 30.18 851 25.13 4.3 39.7 49 -5.6 21.9
05:10 1022 30.18 851 25.13 4.3 39.8 48 -5.7 21.7
05:15 1022 30.18 851 25.13 4.3 39.7 49 -5.6 21.9
05:20 1022 30.18 851 25.13 4.3 39.8 47 -6 21.2
05:25 1022 30.18 851 25.13 4.5 40 46 -6.2 20.9
05:30 1022 30.18 851 25.13 4.6 40.3 47 -5.8 21.6
05:35 1022 30.18 851 25.13 4.2 39.5 49 -5.5 22.1
05:40 1022 30.18 851 25.13 3.9 39.1 50 -5.6 22
05:45 1022 30.18 851 25.13 3.7 38.7 51 -5.4 22.4
05:50 1022 30.18 851 25.13 3.6 38.4 50 -6 21.2
05:55 1022 30.18 851 25.13 3.7 38.7 50 -5.9 21.4
06:00 1022 30.18 851 25.13 3.7 38.6 51 -5.5 22.1
06:05 1022 30.18 851 25.13 3.4 38.1 52 -5.5 22
06:10 1022 30.18 851 25.13 3.3 37.9 53 -5.5 22.2
06:15 1022 30.18 851 25.13 3.2 37.8 52 -5.8 21.6
06:20 1022 30.18 851 25.13 3.2 37.7 53 -5.4 22.2
06:25 1022 30.18 851 25.13 3.1 37.6 54 -5.4 22.3
06:30 1022 30.18 851 25.13 3 37.4 55 -5.1 22.8
06:35 1022 30.18 852 25.16 2.9 37.3 54 -5.4 22.3
06:40 1022 30.18 852 25.16 3 37.3 54 -5.5 22
06:45 1022 30.18 852 25.16 3.2 37.7 54 -5.3 22.4
06:50 1022 30.18 852 25.16 3.3 37.9 53 -5.4 22.2
06:55 1023 30.21 852 25.16 3.4 38 52 -5.7 21.8
07:00 1023 30.21 852 25.16 3.3 38 53 -5.4 22.2
07:05 1023 30.21 852 25.16 3.3 37.9 52 -5.7 21.8
07:10 1023 30.21 852 25.16 3.2 37.8 54 -5.2 22.6
07:15 1023 30.21 852 25.16 3 37.3 55 -5.1 22.8
07:20 1023 30.21 852 25.16 3 37.3 54 -5.4 22.3
07:25 1023 30.21 852 25.16 2.7 36.9 55 -5.5 22.1
07:30 1023 30.21 852 25.16 2.8 37 56 -5 23
07:35 1023 30.21 852 25.16 2.7 36.8 57 -5 23.1
07:40 1023 30.21 852 25.16 2.4 36.3 58 -5.1 22.8
07:45 1023 30.21 852 25.16 2.4 36.2 53 -6.2 20.9
07:50 1023 30.21 852 25.16 3.1 37.5 51 -6.1 21
07:55 1023 30.21 852 25.16 3.5 38.4 50 -5.9 21.3
08:00 1023 30.21 852 25.16 3.5 38.2 54 -5 23
08:05 1023 30.21 852 25.16 3.2 37.8 49 -6.5 20.3
08:10 1023 30.21 852 25.16 4.1 39.4 47 -6.1 21
08:15 1023 30.21 852 25.16 3.9 39 53 -4.9 23.2
08:20 1023 30.21 852 25.16 3.1 37.5 53 -5.5 22.1
08:25 1023 30.21 852 25.16 3.4 38 51 -5.7 21.7
08:30 1023 30.21 852 25.16 3.7 38.6 51 -5.6 21.9
08:35 1023 30.21 852 25.16 3.9 39 52 -5.1 22.8
08:40 1023 30.21 852 25.16 3.9 39.1 53 -4.8 23.4
08:45 1023 30.21 852 25.16 4 39.1 53 -4.8 23.3
08:50 1023 30.21 852 25.16 3.9 39.1 54 -4.6 23.7
08:55 1023 30.21 852 25.16 4.3 39.7 51 -4.9 23.2
09:00 1023 30.21 852 25.16 4.4 40 50 -5 23.1
09:05 1023 30.21 852 25.16 4.9 40.8 50 -4.7 23.5
09:10 1023 30.21 852 25.16 5.1 41.2 49 -4.8 23.4
09:15 1023 30.21 853 25.19 5.6 42.1 48 -4.7 23.6
09:20 1023 30.21 853 25.19 5.9 42.7 46 -4.8 23.4
09:25 1023 30.21 853 25.19 6.2 43.2 46 -4.4 24.1
09:30 1023 30.21 853 25.19 6.6 43.9 45 -4.5 24
09:35 1023 30.21 853 25.19 7 44.5 41 -5.3 22.5
09:40 1023 30.21 853 25.19 7.4 45.3 40 -5.3 22.5
09:45 1023 30.21 853 25.19 7.7 45.9 37 -6 21.2
09:50 1023 30.21 853 25.19 8 46.4 35 -6.4 20.5
09:55 1023 30.21 853 25.19 8.5 47.3 33 -6.8 19.7
10:00 1023 30.21 853 25.19 8.9 48 32 -6.9 19.6
10:05 1023 30.21 853 25.19 9.1 48.4 33 -6.2 20.9
10:10 1023 30.21 853 25.19 9.2 48.6 32 -6.8 19.8
10:15 1023 30.21 853 25.19 9.5 49.1 30 -7.2 19.1
10:20 1023 30.21 853 25.19 10.2 50.3 28 -7.5 18.5
10:25 1023 30.21 853 25.19 10.4 50.7 28 -7.2 19
10:30 1023 30.21 853 25.19 10.8 51.5 27 -7.6 18.3
10:35 1023 30.21 853 25.19 11.3 52.3 26 -7.4 18.7
10:40 1023 30.21 853 25.19 11.8 53.2 25 -7.4 18.7
10:45 1023 30.21 853 25.19 12 53.6 26 -6.8 19.8
10:50 1023 30.21 853 25.19 12.4 54.4 27 -5.8 21.5
10:55 1023 30.21 853 25.19 11.6 52.9 29 -5.7 21.8
11:00 1023 30.21 853 25.19 11.5 52.7 28 -6.4 20.4
11:05 1023 30.21 853 25.19 11.5 52.7 29 -5.8 21.5
11:10 1023 30.21 853 25.19 11.6 52.8 28 -6.4 20.5
11:15 1023 30.21 852 25.16 12.3 54.2 28 -5.7 21.8
11:20 1023 30.21 853 25.19 11 51.8 30 -5.9 21.3
11:25 1023 30.21 852 25.16 11.3 52.4 29 -6 21.3
11:30 1023 30.21 852 25.16 12 53.6 27 -6.5 20.2
11:35 1023 30.21 852 25.16 12.2 54 27 -6 21.2
11:40 1023 30.21 852 25.16 12.8 55.1 27 -5.5 22.1
11:45 1023 30.21 852 25.16 12.8 55.1 26 -6.2 20.9
11:50 1023 30.21 852 25.16 12.8 55 27 -5.8 21.5
11:55 1023 30.21 852 25.16 12.8 55 26 -6.2 20.8
12:00 1023 30.21 852 25.16 13.3 55.9 25 -6.2 20.8
12:05 1023 30.21 852 25.16 13.8 56.9 24 -6.5 20.3
12:10 1023 30.21 852 25.16 14 57.2 23 -6.8 19.8
12:15 1023 30.21 852 25.16 13.8 56.9 22 -7.2 19
12:20 1023 30.21 852 25.16 12.4 54.3 29 -5.3 22.5
12:25 1023 30.21 852 25.16 12.9 55.3 24 -7.2 19.1
12:30 1023 30.21 852 25.16 13.8 56.8 24 -6.4 20.4
12:35 1023 30.21 852 25.16 12.5 54.4 26 -6.3 20.7
12:40 1023 30.21 852 25.16 12.8 55.1 26 -6 21.2
12:45 1023 30.21 852 25.16 13.3 56 24 -6.8 19.8
12:50 1023 30.21 852 25.16 13.9 57 24 -6.6 20.2
12:55 1023 30.21 852 25.16 13.5 56.2 24 -6.7 19.9
13:00 1023 30.21 852 25.16 14.5 58 24 -6 21.1
13:05 1023 30.21 852 25.16 15.2 59.3 23 -5.6 21.9
13:10 1023 30.21 852 25.16 15 59 22 -6.2 20.8
13:15 1022 30.18 852 25.16 13.9 57 24 -6.5 20.4
13:20 1022 30.18 852 25.16 14.5 58.1 22 -6.9 19.6
13:25 1022 30.18 852 25.16 14 57.1 24 -6.3 20.7
13:30 1022 30.18 852 25.16 14.5 58.1 23 -6.2 20.8
13:35 1022 30.18 852 25.16 15.3 59.5 22 -6.1 21.1
13:40 1022 30.18 851 25.13 15.6 60 23 -5.3 22.4
13:45 1022 30.18 851 25.13 15.2 59.3 23 -5.6 22
13:50 1022 30.18 851 25.13 15.3 59.5 24 -5.3 22.5
13:55 1022 30.18 851 25.13 15.4 59.8 23 -5.5 22.1
14:00 1022 30.18 851 25.13 15.8 60.5 23 -5.2 22.6
14:05 1022 30.18 851 25.13 15.5 59.8 24 -5 23
14:10 1022 30.18 851 25.13 15.2 59.3 24 -5.4 22.2
14:15 1022 30.18 851 25.13 15.3 59.5 24 -5.1 22.7
14:20 1022 30.18 851 25.13 15.6 60.2 23 -5.5 22.2
14:25 1022 30.18 851 25.13 15.9 60.6 24 -4.6 23.8
14:30 1022 30.18 851 25.13 15.5 60 23 -5.2 22.7
14:35 1022 30.18 851 25.13 15.6 60.2 23 -5.1 22.8
14:40 1022 30.18 851 25.13 15.5 59.9 23 -5.3 22.4
14:45 1022 30.18 851 25.13 15.6 60.2 23 -5.1 22.8
14:50 1022 30.18 851 25.13 15.4 59.7 23 -5.3 22.5
14:55 1022 30.18 851 25.13 15.8 60.5 24 -4.6 23.6
15:00 1022 30.18 851 25.13 15.5 59.9 25 -4.6 23.7
15:05 1022 30.18 851 25.13 15.7 60.2 24 -4.8 23.4
15:10 1022 30.18 851 25.13 15.7 60.3 24 -4.7 23.5
15:15 1022 30.18 851 25.13 15.3 59.6 26 -4.2 24.4
15:20 1022 30.18 851 25.13 15.7 60.3 24 -4.8 23.4
15:25 1022 30.18 851 25.13 16.2 61.1 23 -4.7 23.6
15:30 1022 30.18 851 25.13 16.2 61.1 24 -4.5 23.8
15:35 1022 30.18 851 25.13 16 60.8 24 -4.4 24.1
15:40 1022 30.18 851 25.13 16.2 61.1 23 -4.7 23.6
15:45 1022 30.18 851 25.13 15.8 60.4 24 -4.8 23.4
15:50 1021 30.15 851 25.13 15.9 60.5 24 -4.5 23.8
15:55 1021 30.15 851 25.13 15.8 60.4 24 -4.9 23.1
16:00 1021 30.15 851 25.13 16.3 61.4 25 -3.9 25
16:05 1022 30.18 851 25.13 16.6 61.8 24 -4.1 24.7
16:10 1022 30.18 851 25.13 15.6 60.1 25 -4.2 24.5
16:15 1021 30.15 851 25.13 16.1 61 23 -4.7 23.5
16:20 1021 30.15 851 25.13 16.3 61.4 23 -4.5 23.9
16:25 1021 30.15 851 25.13 16.4 61.6 23 -4.4 24
16:30 1021 30.15 851 25.13 16.4 61.5 24 -4.3 24.2
16:35 1021 30.15 851 25.13 16.7 62 24 -3.9 25.1
16:40 1021 30.15 851 25.13 16.3 61.3 25 -3.9 25
16:45 1021 30.15 851 25.13 16 60.7 27 -2.9 26.8
16:50 1021 30.15 850 25.1 15.4 59.8 26 -3.6 25.5
16:55 1021 30.15 850 25.1 15.3 59.5 27 -3.7 25.3
17:00 1021 30.15 850 25.1 15.7 60.3 26 -3.8 25.2
17:05 1021 30.15 850 25.1 16.3 61.4 24 -3.9 24.9
17:10 1021 30.15 850 25.1 15.9 60.6 28 -2.4 27.7
17:15 1021 30.15 850 25.1 15.9 60.6 25 -4.3 24.3
17:20 1021 30.15 850 25.1 16.3 61.3 24 -4 24.8
17:25 1021 30.15 850 25.1 15.9 60.7 26 -3.4 25.8
17:30 1021 30.15 850 25.1 16.4 61.6 25 -3.5 25.7
17:35 1021 30.15 850 25.1 16.6 61.9 24 -3.8 25.1
17:40 1021 30.15 850 25.1 16.5 61.6 24 -3.9 25
17:45 1021 30.15 850 25.1 16.1 60.9 26 -3.5 25.7
17:50 1021 30.15 850 25.1 14.9 58.8 28 -3.4 25.9
17:55 1021 30.15 850 25.1 14.2 57.5 28 -3.9 25
18:00 1021 30.15 850 25.1 14.2 57.6 28 -3.9 25
18:05 1021 30.15 850 25.1 14.2 57.6 28 -4 24.8
18:10 1021 30.15 850 25.1 14.4 57.9 28 -4 24.7
18:15 1021 30.15 850 25.1 14.4 58 28 -3.9 24.9
18:20 1021 30.15 850 25.1 14.3 57.7 28 -3.8 25.2
18:25 1021 30.15 850 25.1 14 57.2 29 -3.7 25.3
18:30 1021 30.15 850 25.1 13.4 56.2 30 -3.9 25
18:35 1021 30.15 850 25.1 13 55.4 42 0.4 32.8
18:40 1021 30.15 850 25.1 12.1 53.8 45 0.7 33.2
18:45 1021 30.15 850 25.1 11.4 52.5 47 0.6 33.1
18:50 1021 30.15 850 25.1 10.7 51.2 49 0.4 32.8
18:55 1021 30.15 850 25.1 10.2 50.3 50 0.3 32.6
19:00 1021 30.15 850 25.1 9.8 49.7 51 0.1 32.3
19:05 1021 30.15 850 25.1 9.8 49.6 51 0 32.1
19:10 1021 30.15 850 25.1 9.6 49.3 52 0.2 32.4
19:15 1021 30.15 850 25.1 9.3 48.8 53 0.2 32.4
19:20 1021 30.15 850 25.1 9 48.3 53 -0 32
19:25 1021 30.15 850 25.1 8.9 48 54 0 32
19:30 1021 30.15 850 25.1 8.7 47.7 54 -0 31.9
19:35 1021 30.15 851 25.13 8.8 47.8 53 -0.3 31.5
19:40 1021 30.15 851 25.13 8.4 47.2 55 -0 32
19:45 1021 30.15 851 25.13 8 46.5 56 -0.1 31.7
19:50 1021 30.15 851 25.13 7.8 46 56 -0.4 31.4
19:55 1021 30.15 851 25.13 7.8 46.1 55 -0.7 30.8
20:00 1021 30.15 851 25.13 7.9 46.1 52 -1.3 29.6
20:05 1021 30.15 851 25.13 8.5 47.4 49 -1.6 29.1
20:10 1021 30.15 851 25.13 9 48.2 46 -1.9 28.6
20:15 1021 30.15 851 25.13 9.4 48.8 48 -1.2 29.9
20:20 1021 30.15 851 25.13 8.9 48.1 50 -0.9 30.3
20:25 1021 30.15 851 25.13 8.5 47.4 52 -0.8 30.5
20:30 1021 30.15 851 25.13 8.3 46.9 53 -0.7 30.7
20:35 1021 30.15 851 25.13 8.1 46.5 54 -0.6 30.9
20:40 1021 30.15 851 25.13 7.8 46.1 55 -0.7 30.8
20:45 1021 30.15 851 25.13 7.7 45.9 55 -0.7 30.8
20:50 1021 30.15 851 25.13 7.6 45.7 56 -0.7 30.7
20:55 1021 30.15 851 25.13 7.5 45.4 55 -0.9 30.3
21:00 1021 30.15 851 25.13 7.6 45.6 54 -1 30.2
21:05 1021 30.15 851 25.13 7.5 45.5 55 -1 30.2
21:10 1021 30.15 851 25.13 7.4 45.2 55 -1 30.2
21:15 1021 30.15 851 25.13 7.4 45.3 55 -1 30.1
21:20 1021 30.15 851 25.13 7.4 45.4 56 -0.8 30.5
21:25 1021 30.15 851 25.13 7.3 45.2 56 -0.9 30.4
21:30 1021 30.15 850 25.1 7.3 45.2 55 -1.1 30
21:35 1021 30.15 850 25.1 7.4 45.4 55 -1.1 30.1
21:40 1021 30.15 850 25.1 7.5 45.4 55 -1 30.2
21:45 1021 30.15 851 25.13 7.3 45.2 56 -0.9 30.3
21:50 1021 30.15 851 25.13 7.2 44.9 55 -1.1 30
21:55 1021 30.15 851 25.13 7.3 45.1 55 -1.2 29.8
22:00 1021 30.15 851 25.13 7.4 45.3 55 -1 30.2
22:05 1021 30.15 850 25.1 7.1 44.7 56 -1.1 30.1
22:10 1021 30.15 850 25.1 7.1 44.7 55 -1.4 29.5
22:15 1021 30.15 850 25.1 7.1 44.8 55 -1.2 29.8
22:20 1021 30.15 850 25.1 7 44.5 56 -1.3 29.7
22:25 1021 30.15 850 25.1 7 44.6 55 -1.5 29.3
22:30 1021 30.15 850 25.1 7.4 45.2 53 -1.5 29.3
22:35 1021 30.15 850 25.1 7.4 45.4 53 -1.5 29.3
22:40 1021 30.15 850 25.1 7.8 46 51 -1.7 29
22:45 1021 30.15 851 25.13 7.8 46 52 -1.4 29.5
22:50 1021 30.15 851 25.13 7.7 45.9 51 -1.8 28.7
22:55 1021 30.15 851 25.13 8.1 46.5 50 -1.7 28.9
23:00 1021 30.15 851 25.13 8.2 46.8 49 -1.7 28.9
23:05 1022 30.18 851 25.13 8.2 46.8 49 -1.7 28.9
23:10 1022 30.18 851 25.13 8.2 46.8 50 -1.5 29.3
23:15 1022 30.18 851 25.13 7.9 46.3 52 -1.4 29.5
23:20 1022 30.18 851 25.13 7.5 45.6 53 -1.3 29.6
23:25 1022 30.18 851 25.13 7.3 45.1 55 -1.2 29.8
23:30 1022 30.18 851 25.13 7 44.7 55 -1.3 29.7
23:35 1022 30.18 851 25.13 7 44.6 55 -1.4 29.6
23:40 1022 30.18 851 25.13 6.9 44.4 56 -1.2 29.8
23:45 1022 30.18 851 25.13 6.7 44.1 58 -1 30.3
23:50 1022 30.18 851 25.13 6 42.8 61 -1 30.2
23:55 1022 30.18 851 25.13 5.8 42.4 60 -1.4 29.4
24:00 1022 30.18 851 25.13 6 42.8 60 -1.2 29.9